Time;durP1;ratioP1;P1;durP2;ratioP2;P2;SDS_P1;SDS_P2;PMS_P1;PMS_P2;Temp;Humidity;BMP_temperature;BMP_pressure;BME280_temperature;BME280_humidity;BME280_pressure;Samples;Min_cycle;Max_cycle;Signal;HPM_P1;HPM_P2
2022/09/12 00:00:20;;;;;;;1.75;1.30;;;;;;;;;;5137421;27;20552;-64
2022/09/12 00:02:46;;;;;;;6.00;1.88;;;;;;;;;;5132867;27;20088;-63
2022/09/12 00:05:11;;;;;;;7.55;1.63;;;;;;;;;;5135793;27;20060;-63
2022/09/12 00:07:37;;;;;;;2.85;1.67;;;;;;;;;;5135311;27;20038;-65
2022/09/12 00:10:02;;;;;;;3.50;1.17;;;;;;;;;;5135606;27;20019;-63
2022/09/12 00:12:28;;;;;;;3.15;1.00;;;;;;;;;;5136696;27;20405;-65
2022/09/12 00:14:53;;;;;;;5.85;1.33;;;;;;;;;;5132631;27;20062;-64
2022/09/12 00:17:18;;;;;;;2.22;1.15;;;;;;;;;;5135799;27;20022;-62
2022/09/12 00:19:44;;;;;;;2.35;1.23;;;;;;;;;;5131007;27;20549;-62
2022/09/12 00:22:09;;;;;;;4.47;2.65;;;;;;;;;;5132953;27;20031;-63
2022/09/12 00:24:34;;;;;;;1.20;0.70;;;;;;;;;;5132730;27;20441;-63
2022/09/12 00:27:00;;;;;;;3.25;1.23;;;;;;;;;;5130145;27;20019;-63
2022/09/12 00:29:25;;;;;;;1.88;1.42;;;;;;;;;;5130975;27;20054;-64
2022/09/12 00:31:50;;;;;;;4.07;1.27;;;;;;;;;;5132907;27;20033;-62
2022/09/12 00:34:16;;;;;;;1.45;0.98;;;;;;;;;;5134219;27;20019;-64
2022/09/12 00:36:41;;;;;;;2.63;1.23;;;;;;;;;;5119430;27;20120;-62
2022/09/12 00:39:07;;;;;;;4.75;1.55;;;;;;;;;;5137779;27;20015;-64
2022/09/12 00:41:37;;;;;;;1.55;1.10;;;;;;;;;;5134055;27;20508;-65
2022/09/12 00:44:11;;;;;;;2.43;1.30;;;;;;;;;;5136063;27;20540;-63
2022/09/12 00:46:45;;;;;;;2.08;1.60;;;;;;;;;;5135587;27;20033;-64
2022/09/12 00:49:11;;;;;;;4.43;3.05;;;;;;;;;;5133061;27;20462;-63
2022/09/12 00:51:37;;;;;;;3.92;1.65;;;;;;;;;;5132250;27;20655;-63
2022/09/12 00:54:05;;;;;;;4.55;1.05;;;;;;;;;;5134360;27;20501;-64
2022/09/12 00:56:31;;;;;;;1.25;1.00;;;;;;;;;;5132672;27;20520;-63
2022/09/12 00:59:04;;;;;;;4.85;1.10;;;;;;;;;;5130111;27;20023;-64
2022/09/12 01:01:29;;;;;;;6.32;1.25;;;;;;;;;;5135925;27;20979;-64
2022/09/12 01:03:55;;;;;;;1.70;1.00;;;;;;;;;;5134859;27;20027;-62
2022/09/12 01:06:23;;;;;;;2.45;1.40;;;;;;;;;;5135323;27;20678;-64
2022/09/12 01:08:49;;;;;;;0.73;0.68;;;;;;;;;;5135261;27;20047;-63
2022/09/12 01:11:15;;;;;;;1.92;1.33;;;;;;;;;;5136194;27;20669;-63
2022/09/12 01:13:42;;;;;;;3.03;1.10;;;;;;;;;;5133562;27;20056;-63
2022/09/12 01:16:07;;;;;;;3.58;1.30;;;;;;;;;;5131264;27;20094;-64
2022/09/12 01:18:48;;;;;;;3.08;0.82;;;;;;;;;;5136831;27;20398;-62
2022/09/12 01:21:13;;;;;;;4.55;1.77;;;;;;;;;;5133088;27;20016;-62
2022/09/12 01:24:08;;;;;;;2.45;1.00;;;;;;;;;;5133143;27;20060;-64
2022/09/12 01:26:39;;;;;;;4.95;1.33;;;;;;;;;;5053716;27;20236;-64
2022/09/12 01:29:04;;;;;;;1.67;0.82;;;;;;;;;;5132973;27;20023;-63
2022/09/12 01:31:37;;;;;;;1.27;0.80;;;;;;;;;;5135150;27;20075;-64
2022/09/12 01:34:05;;;;;;;1.35;1.00;;;;;;;;;;5135284;27;20011;-64
2022/09/12 01:36:32;;;;;;;1.77;0.82;;;;;;;;;;5133612;27;20526;-64
2022/09/12 01:39:00;;;;;;;2.97;1.30;;;;;;;;;;5131784;27;20020;-63
2022/09/12 01:41:38;;;;;;;0.80;0.60;;;;;;;;;;5129027;27;20020;-64
2022/09/12 01:44:03;;;;;;;2.47;0.95;;;;;;;;;;5136044;27;20083;-64
2022/09/12 01:46:55;;;;;;;2.20;0.93;;;;;;;;;;5131578;27;20446;-64
2022/09/12 01:49:40;;;;;;;5.57;1.27;;;;;;;;;;5125890;27;20099;-63
2022/09/12 01:52:11;;;;;;;2.97;1.63;;;;;;;;;;5126597;27;20023;-63
2022/09/12 01:55:09;;;;;;;1.20;0.73;;;;;;;;;;5128866;27;20521;-63
2022/09/12 01:57:37;;;;;;;2.22;0.70;;;;;;;;;;5051373;28;20098;-63
2022/09/12 02:00:05;;;;;;;1.95;1.23;;;;;;;;;;5077766;28;20030;-63
2022/09/12 02:02:35;;;;;;;4.22;0.77;;;;;;;;;;5075073;28;20130;-62
2022/09/12 02:05:06;;;;;;;2.38;0.50;;;;;;;;;;5077620;28;20036;-63
2022/09/12 02:07:36;;;;;;;1.42;0.60;;;;;;;;;;5078615;28;20043;-63
2022/09/12 02:10:01;;;;;;;0.32;0.25;;;;;;;;;;5076944;28;20374;-62
2022/09/12 02:12:30;;;;;;;2.25;1.00;;;;;;;;;;5077535;28;20483;-62
2022/09/12 02:15:01;;;;;;;1.27;0.88;;;;;;;;;;5076117;28;20017;-62
2022/09/12 02:17:26;;;;;;;;;;;;;;;;;;5077679;28;20016;-63
2022/09/12 02:19:53;;;;;;;2.63;1.27;;;;;;;;;;5075077;28;19905;-63
2022/09/12 02:22:20;;;;;;;3.13;0.70;;;;;;;;;;5074418;28;20127;-62
2022/09/12 02:24:48;;;;;;;1.25;0.65;;;;;;;;;;5075252;28;20013;-63
2022/09/12 02:27:15;;;;;;;1.92;0.70;;;;;;;;;;5074214;28;20052;-63
2022/09/12 02:29:41;;;;;;;16.38;1.05;;;;;;;;;;5075620;28;20050;-63
2022/09/12 02:32:11;;;;;;;0.73;0.35;;;;;;;;;;5074244;28;20052;-63
2022/09/12 02:34:50;;;;;;;2.25;0.95;;;;;;;;;;5076297;28;20387;-62
2022/09/12 02:37:41;;;;;;;0.98;0.40;;;;;;;;;;5075754;28;20546;-63
2022/09/12 02:40:07;;;;;;;0.52;0.40;;;;;;;;;;5078048;28;20479;-63
2022/09/12 02:42:33;;;;;;;1.65;0.45;;;;;;;;;;5074310;28;20016;-63
2022/09/12 02:44:58;;;;;;;2.08;0.43;;;;;;;;;;5075961;28;20086;-62
2022/09/12 02:47:30;;;;;;;0.90;0.57;;;;;;;;;;5076749;28;20115;-62
2022/09/12 02:49:55;;;;;;;0.98;0.35;;;;;;;;;;5074277;28;20024;-63
2022/09/12 02:52:21;;;;;;;0.40;0.28;;;;;;;;;;5074575;28;20452;-63
2022/09/12 02:54:46;;;;;;;0.30;0.28;;;;;;;;;;5074448;28;20440;-63
2022/09/12 02:57:16;;;;;;;0.85;0.22;;;;;;;;;;5131774;27;20043;-62
2022/09/12 02:59:41;;;;;;;1.85;0.68;;;;;;;;;;5138375;27;20042;-62
2022/09/12 03:02:22;;;;;;;2.63;0.77;;;;;;;;;;5137731;27;20655;-62
2022/09/12 03:04:47;;;;;;;4.05;0.40;;;;;;;;;;5137597;27;20097;-62
2022/09/12 03:07:15;;;;;;;1.08;0.50;;;;;;;;;;5137975;27;20062;-62
2022/09/12 03:09:47;;;;;;;1.27;0.30;;;;;;;;;;5136189;27;20058;-60
2022/09/12 03:12:30;;;;;;;1.13;0.60;;;;;;;;;;5122618;27;20019;-62
2022/09/12 03:15:00;;;;;;;2.15;1.02;;;;;;;;;;5136498;27;20075;-62
2022/09/12 03:17:41;;;;;;;1.30;1.05;;;;;;;;;;5130803;27;20037;-62
2022/09/12 03:20:08;;;;;;;;;;;;;;;;;;5133796;27;20015;-62
2022/09/12 03:22:41;;;;;;;3.05;1.75;;;;;;;;;;5138639;27;19911;-62
2022/09/12 03:25:06;;;;;;;3.38;0.93;;;;;;;;;;5137478;27;20115;-62
2022/09/12 03:27:39;;;;;;;1.95;1.27;;;;;;;;;;5137373;27;20122;-62
2022/09/12 03:30:05;;;;;;;2.80;0.85;;;;;;;;;;5135167;27;20037;-63
2022/09/12 03:32:44;;;;;;;2.05;1.27;;;;;;;;;;5132920;27;20014;-62
2022/09/12 03:35:10;;;;;;;2.90;1.45;;;;;;;;;;5135549;27;20038;-62
2022/09/12 03:37:36;;;;;;;2.05;0.68;;;;;;;;;;5136348;27;20043;-64
2022/09/12 03:40:02;;;;;;;3.97;1.63;;;;;;;;;;5133533;27;20390;-63
2022/09/12 03:42:28;;;;;;;1.45;1.15;;;;;;;;;;5118151;27;20487;-62
2022/09/12 03:44:53;;;;;;;1.30;0.95;;;;;;;;;;5129688;27;20051;-63
2022/09/12 03:47:18;;;;;;;3.50;1.48;;;;;;;;;;5137529;27;20023;-63
2022/09/12 03:49:44;;;;;;;1.40;0.60;;;;;;;;;;5135355;27;20020;-62
2022/09/12 03:52:09;;;;;;;1.33;0.63;;;;;;;;;;5138800;27;20094;-62
2022/09/12 03:54:35;;;;;;;1.13;0.68;;;;;;;;;;5134491;27;20011;-62
2022/09/12 03:57:00;;;;;;;10.40;0.88;;;;;;;;;;5138931;27;20074;-62
2022/09/12 03:59:25;;;;;;;3.33;1.52;;;;;;;;;;5135139;27;20042;-62
2022/09/12 04:01:51;;;;;;;1.10;0.68;;;;;;;;;;5132854;27;20061;-62
2022/09/12 04:04:16;;;;;;;3.22;0.68;;;;;;;;;;5134232;27;20019;-62
2022/09/12 04:06:42;;;;;;;2.25;0.88;;;;;;;;;;5128849;27;20028;-62
2022/09/12 04:09:08;;;;;;;0.68;0.30;;;;;;;;;;5132573;27;20042;-63
2022/09/12 04:11:34;;;;;;;0.95;0.52;;;;;;;;;;5138107;27;20065;-63
2022/09/12 04:14:00;;;;;;;1.02;0.90;;;;;;;;;;5135242;27;20042;-62
2022/09/12 04:16:25;;;;;;;1.35;0.65;;;;;;;;;;5132728;27;20055;-63
2022/09/12 04:18:51;;;;;;;5.68;0.88;;;;;;;;;;5135271;27;20011;-63
2022/09/12 04:21:17;;;;;;;12.55;0.93;;;;;;;;;;5133213;27;20516;-63
2022/09/12 04:23:42;;;;;;;4.22;1.30;;;;;;;;;;5138887;27;20011;-62
2022/09/12 04:26:08;;;;;;;1.00;0.40;;;;;;;;;;5137972;27;20110;-62
2022/09/12 04:28:34;;;;;;;2.10;0.75;;;;;;;;;;5133573;27;20381;-62
2022/09/12 04:31:01;;;;;;;0.68;0.55;;;;;;;;;;5135639;27;20014;-62
2022/09/12 04:33:26;;;;;;;3.15;0.90;;;;;;;;;;5131429;27;20493;-62
2022/09/12 04:35:51;;;;;;;1.85;0.80;;;;;;;;;;5131696;27;20042;-62
2022/09/12 04:38:17;;;;;;;1.50;0.45;;;;;;;;;;5137042;27;20095;-63
2022/09/12 04:40:42;;;;;;;1.77;0.60;;;;;;;;;;5134561;27;20025;-61
2022/09/12 04:43:08;;;;;;;1.20;0.55;;;;;;;;;;5130239;27;20081;-63
2022/09/12 04:45:33;;;;;;;5.95;0.80;;;;;;;;;;5135350;27;20078;-62
2022/09/12 04:47:59;;;;;;;1.45;0.80;;;;;;;;;;5135843;27;20027;-63
2022/09/12 04:50:24;;;;;;;1.88;1.00;;;;;;;;;;5130548;27;20038;-61
2022/09/12 04:52:50;;;;;;;1.20;0.95;;;;;;;;;;5136007;27;20027;-61
2022/09/12 04:55:15;;;;;;;2.13;1.42;;;;;;;;;;5131813;27;20054;-61
2022/09/12 04:57:40;;;;;;;4.80;1.58;;;;;;;;;;5134013;27;20022;-62
2022/09/12 05:00:07;;;;;;;1.67;0.80;;;;;;;;;;5131177;27;20051;-61
2022/09/12 05:02:33;;;;;;;1.73;1.08;;;;;;;;;;5132741;27;20519;-65
2022/09/12 05:04:58;;;;;;;1.10;0.80;;;;;;;;;;5130530;27;20030;-62
2022/09/12 05:07:23;;;;;;;0.93;0.50;;;;;;;;;;5138652;27;20026;-61
2022/09/12 05:09:49;;;;;;;5.75;1.50;;;;;;;;;;5133636;27;20065;-62
2022/09/12 05:12:14;;;;;;;1.30;0.80;;;;;;;;;;5128190;27;20033;-61
2022/09/12 05:14:39;;;;;;;4.88;0.90;;;;;;;;;;5130614;27;20432;-61
2022/09/12 05:17:05;;;;;;;2.20;1.33;;;;;;;;;;5132826;27;20102;-61
2022/09/12 05:19:30;;;;;;;5.38;0.93;;;;;;;;;;5133380;27;20234;-61
2022/09/12 05:21:56;;;;;;;2.33;1.13;;;;;;;;;;5131042;27;20050;-61
2022/09/12 05:24:21;;;;;;;1.85;1.30;;;;;;;;;;5127022;27;20656;-61
2022/09/12 05:26:46;;;;;;;3.17;1.58;;;;;;;;;;5128097;27;20431;-61
2022/09/12 05:29:12;;;;;;;2.72;1.10;;;;;;;;;;5131442;27;20072;-61
2022/09/12 05:31:37;;;;;;;3.55;2.33;;;;;;;;;;5133720;27;20038;-61
2022/09/12 05:34:07;;;;;;;3.88;1.42;;;;;;;;;;5134096;27;20079;-61
2022/09/12 05:36:32;;;;;;;2.33;1.73;;;;;;;;;;5129906;27;20055;-61
2022/09/12 05:38:58;;;;;;;4.00;1.05;;;;;;;;;;5126839;27;20015;-61
2022/09/12 05:41:29;;;;;;;2.90;1.80;;;;;;;;;;5130607;27;20074;-60
2022/09/12 05:43:59;;;;;;;7.03;0.90;;;;;;;;;;5136474;27;20160;-62
2022/09/12 05:46:28;;;;;;;7.88;1.38;;;;;;;;;;5128483;27;20011;-62
2022/09/12 05:48:54;;;;;;;37.63;11.18;;;;;;;;;;5128147;27;20031;-62
2022/09/12 05:51:24;;;;;;;4.00;1.55;;;;;;;;;;5128841;27;20027;-62
2022/09/12 05:53:51;;;;;;;0.33;0.33;;;;;;;;;;5130920;27;20050;-61
2022/09/12 05:56:22;;;;;;;5.82;1.88;;;;;;;;;;5123559;27;20279;-62
2022/09/12 05:58:47;;;;;;;;;;;;;;;;;;5127238;27;20060;-62
2022/09/12 06:01:17;;;;;;;2.97;1.10;;;;;;;;;;5130374;27;19988;-62
2022/09/12 06:03:44;;;;;;;8.85;1.95;;;;;;;;;;5135729;27;20031;-62
2022/09/12 06:06:12;;;;;;;3.65;1.33;;;;;;;;;;5128428;27;20026;-62
2022/09/12 06:08:38;;;;;;;1.45;0.75;;;;;;;;;;5136085;27;20022;-63
2022/09/12 06:11:04;;;;;;;4.22;1.17;;;;;;;;;;5132070;27;20556;-63
2022/09/12 06:13:31;;;;;;;6.15;1.73;;;;;;;;;;5131333;27;20434;-63
2022/09/12 06:16:01;;;;;;;4.78;1.60;;;;;;;;;;5133197;27;20143;-62
2022/09/12 06:18:27;;;;;;;1.63;0.82;;;;;;;;;;5132434;27;20023;-64
2022/09/12 06:20:52;;;;;;;8.13;1.45;;;;;;;;;;5131493;27;20080;-63
2022/09/12 06:23:17;;;;;;;14.07;2.90;;;;;;;;;;5131668;27;20023;-64
2022/09/12 06:25:47;;;;;;;2.00;1.10;;;;;;;;;;5131959;27;20035;-64
2022/09/12 06:28:12;;;;;;;9.52;1.40;;;;;;;;;;5131718;27;20019;-65
2022/09/12 06:30:37;;;;;;;4.72;1.52;;;;;;;;;;5127637;27;20085;-63
2022/09/12 06:33:02;;;;;;;5.05;1.45;;;;;;;;;;5129763;27;20055;-63
2022/09/12 06:35:28;;;;;;;4.45;0.68;;;;;;;;;;5128998;27;20015;-63
2022/09/12 06:37:53;;;;;;;5.18;2.53;;;;;;;;;;5134975;27;20015;-64
2022/09/12 06:40:18;;;;;;;3.10;1.45;;;;;;;;;;5128616;27;20022;-66
2022/09/12 06:42:44;;;;;;;20.52;2.20;;;;;;;;;;5134890;27;20030;-64
2022/09/12 06:45:10;;;;;;;1.48;1.17;;;;;;;;;;5131827;27;20058;-65
2022/09/12 06:47:36;;;;;;;4.97;2.22;;;;;;;;;;5131455;27;20014;-64
2022/09/12 06:50:01;;;;;;;6.95;2.85;;;;;;;;;;5133451;27;20030;-64
2022/09/12 06:52:28;;;;;;;11.50;8.13;;;;;;;;;;5127637;27;20363;-61
2022/09/12 06:54:53;;;;;;;9.20;4.95;;;;;;;;;;5131885;27;20518;-58
2022/09/12 06:57:18;;;;;;;6.00;3.22;;;;;;;;;;5131023;27;20168;-58
2022/09/12 06:59:43;;;;;;;4.72;2.75;;;;;;;;;;5132868;27;20564;-58
2022/09/12 07:02:09;;;;;;;3.95;2.42;;;;;;;;;;5132640;27;20384;-59
2022/09/12 07:04:35;;;;;;;0.95;0.65;;;;;;;;;;5134545;27;20501;-58
2022/09/12 07:07:01;;;;;;;2.83;1.42;;;;;;;;;;5129607;27;20030;-57
2022/09/12 07:09:28;;;;;;;2.30;0.68;;;;;;;;;;5130320;27;20021;-58
2022/09/12 07:11:53;;;;;;;3.22;1.77;;;;;;;;;;5132123;27;20023;-57
2022/09/12 07:14:19;;;;;;;1.92;0.60;;;;;;;;;;5129571;27;20025;-57
2022/09/12 07:16:44;;;;;;;11.60;1.15;;;;;;;;;;5135704;27;20042;-58
2022/09/12 07:19:09;;;;;;;2.15;1.30;;;;;;;;;;5132691;27;20023;-58
2022/09/12 07:21:38;;;;;;;4.93;1.80;;;;;;;;;;5134106;27;20131;-59
2022/09/12 07:24:04;;;;;;;7.22;1.13;;;;;;;;;;5131844;27;20051;-59
2022/09/12 07:26:29;;;;;;;16.58;5.55;;;;;;;;;;5135424;27;20083;-58
2022/09/12 07:28:55;;;;;;;7.43;3.22;;;;;;;;;;5124350;27;20053;-61
2022/09/12 07:31:24;;;;;;;18.45;9.18;;;;;;;;;;5132798;27;20023;-61
2022/09/12 07:33:50;;;;;;;19.85;11.98;;;;;;;;;;5130449;27;20022;-61
2022/09/12 07:36:21;;;;;;;16.77;10.10;;;;;;;;;;5130321;27;20314;-60
2022/09/12 07:38:46;;;;;;;6.85;6.03;;;;;;;;;;5133689;27;20011;-60
2022/09/12 07:41:14;;;;;;;16.10;10.25;;;;;;;;;;5124307;27;20031;-60
2022/09/12 07:43:40;;;;;;;19.30;8.15;;;;;;;;;;5131817;27;20087;-60
2022/09/12 07:46:06;;;;;;;22.55;8.80;;;;;;;;;;5138343;27;20092;-60
2022/09/12 07:48:32;;;;;;;21.98;7.28;;;;;;;;;;5135558;27;20549;-61
2022/09/12 07:51:02;;;;;;;11.18;5.95;;;;;;;;;;5134945;27;20016;-60
2022/09/12 07:53:32;;;;;;;28.23;7.80;;;;;;;;;;5133695;27;20063;-61
2022/09/12 07:55:58;;;;;;;9.80;4.75;;;;;;;;;;5133289;27;20054;-59
2022/09/12 07:58:24;;;;;;;6.25;4.07;;;;;;;;;;5137652;27;20023;-60
2022/09/12 08:00:49;;;;;;;21.25;7.43;;;;;;;;;;5138381;27;20929;-60
2022/09/12 08:03:14;;;;;;;2.72;0.85;;;;;;;;;;5134826;27;20019;-60
2022/09/12 08:05:40;;;;;;;4.00;1.50;;;;;;;;;;5137565;27;20110;-60
2022/09/12 08:08:05;;;;;;;3.42;0.80;;;;;;;;;;5135375;27;20485;-60
2022/09/12 08:10:30;;;;;;;14.43;9.43;;;;;;;;;;5129289;27;20019;-60
2022/09/12 08:12:56;;;;;;;13.70;10.48;;;;;;;;;;5135930;27;20023;-60
2022/09/12 08:15:21;;;;;;;17.42;7.53;;;;;;;;;;5136870;27;20022;-60
2022/09/12 08:17:47;;;;;;;6.75;4.28;;;;;;;;;;5137098;27;20019;-60
2022/09/12 08:20:12;;;;;;;5.82;3.63;;;;;;;;;;5134120;27;20015;-61
2022/09/12 08:22:39;;;;;;;5.57;2.67;;;;;;;;;;5132535;27;20075;-61
2022/09/12 08:25:05;;;;;;;2.72;1.55;;;;;;;;;;5132528;27;20058;-60
2022/09/12 08:27:30;;;;;;;5.30;1.48;;;;;;;;;;5131814;27;20043;-60
2022/09/12 08:29:56;;;;;;;6.97;3.70;;;;;;;;;;5136505;27;20023;-60
2022/09/12 08:32:21;;;;;;;2.38;1.58;;;;;;;;;;5134019;27;20125;-59
2022/09/12 08:34:46;;;;;;;2.90;1.45;;;;;;;;;;5131779;27;20030;-58
2022/09/12 08:37:11;;;;;;;2.42;0.75;;;;;;;;;;5137543;27;20076;-59
2022/09/12 08:39:37;;;;;;;0.93;0.63;;;;;;;;;;5135188;27;20083;-59
2022/09/12 08:42:03;;;;;;;2.45;1.17;;;;;;;;;;5136160;27;20049;-60
2022/09/12 08:44:52;;;;;;;1.35;0.80;;;;;;;;;;5132251;27;20025;-60
2022/09/12 08:47:24;;;;;;;2.78;1.45;;;;;;;;;;5134182;27;20043;-60
2022/09/12 08:49:55;;;;;;;6.15;1.30;;;;;;;;;;5131976;27;20026;-60
2022/09/12 08:52:34;;;;;;;7.43;2.15;;;;;;;;;;5133382;27;20019;-60
2022/09/12 08:55:01;;;;;;;3.95;1.27;;;;;;;;;;5129785;27;20426;-60
2022/09/12 08:57:27;;;;;;;8.65;2.50;;;;;;;;;;5131349;27;20466;-44
2022/09/12 08:59:52;;;;;;;5.57;1.52;;;;;;;;;;5130141;27;20010;-44
2022/09/12 09:02:36;;;;;;;2.53;1.23;;;;;;;;;;5133026;27;20043;-55
2022/09/12 09:05:13;;;;;;;4.78;1.08;;;;;;;;;;5132141;27;20026;-53
2022/09/12 09:07:48;;;;;;;2.42;1.70;;;;;;;;;;5131886;27;20047;-50
2022/09/12 09:10:20;;;;;;;1.40;0.70;;;;;;;;;;5129912;27;20034;-43
2022/09/12 09:12:45;;;;;;;1.17;0.75;;;;;;;;;;5135813;27;20075;-54
2022/09/12 09:15:13;;;;;;;2.03;1.13;;;;;;;;;;5136220;27;20021;-44
2022/09/12 09:17:46;;;;;;;2.17;1.10;;;;;;;;;;5136148;27;20028;-42
2022/09/12 09:20:30;;;;;;;1.45;0.60;;;;;;;;;;5134094;27;20061;-39
2022/09/12 09:23:00;;;;;;;1.48;0.50;;;;;;;;;;5134267;27;20524;-42
2022/09/12 09:25:44;;;;;;;5.65;2.15;;;;;;;;;;5128044;27;20581;-37
2022/09/12 09:28:19;;;;;;;1.23;0.70;;;;;;;;;;5135663;27;20454;-37
2022/09/12 09:30:45;;;;;;;0.93;0.65;;;;;;;;;;5134133;27;20102;-40
2022/09/12 09:33:27;;;;;;;3.13;0.70;;;;;;;;;;5132937;27;20443;-43
2022/09/12 09:35:55;;;;;;;1.95;0.65;;;;;;;;;;5126864;27;20015;-45
2022/09/12 09:38:32;;;;;;;0.93;0.52;;;;;;;;;;5133351;27;20074;-43
2022/09/12 09:41:09;;;;;;;1.05;0.63;;;;;;;;;;5131527;27;20474;-47
2022/09/12 09:43:36;;;;;;;9.43;1.25;;;;;;;;;;5133696;27;20031;-43
2022/09/12 09:46:01;;;;;;;1.48;0.85;;;;;;;;;;5132822;27;20019;-44
2022/09/12 09:48:26;;;;;;;1.40;0.77;;;;;;;;;;5129600;27;20090;-44
2022/09/12 09:50:52;;;;;;;8.25;1.17;;;;;;;;;;5134320;27;20014;-43
2022/09/12 09:53:45;;;;;;;2.15;1.05;;;;;;;;;;5130872;27;20023;-46
2022/09/12 09:56:25;;;;;;;1.92;1.42;;;;;;;;;;5130533;27;20035;-43
2022/09/12 09:58:50;;;;;;;;;;;;;;;;;;5127940;27;20020;-44
2022/09/12 10:01:16;;;;;;;6.10;1.60;;;;;;;;;;5128106;27;20001;-44
2022/09/12 10:03:47;;;;;;;1.10;0.60;;;;;;;;;;5127478;27;20019;-44
2022/09/12 10:06:19;;;;;;;3.63;1.30;;;;;;;;;;5127480;27;20027;-43
2022/09/12 10:08:44;;;;;;;1.25;0.88;;;;;;;;;;5130052;27;20081;-43
2022/09/12 10:11:21;;;;;;;6.05;1.55;;;;;;;;;;5130188;27;20023;-44
2022/09/12 10:13:52;;;;;;;2.20;1.40;;;;;;;;;;5133299;27;20035;-47
2022/09/12 10:16:22;;;;;;;2.15;1.05;;;;;;;;;;5131961;27;20026;-43
2022/09/12 10:18:49;;;;;;;3.33;1.83;;;;;;;;;;5131463;27;20008;-45
2022/09/12 10:21:21;;;;;;;1.23;0.73;;;;;;;;;;5130096;27;20546;-46
2022/09/12 10:23:50;;;;;;;1.00;0.57;;;;;;;;;;5134292;27;20030;-47
2022/09/12 10:26:17;;;;;;;1.55;0.73;;;;;;;;;;5132441;27;20071;-43
2022/09/12 10:28:48;;;;;;;0.73;0.63;;;;;;;;;;5129706;27;20057;-47
2022/09/12 10:31:14;;;;;;;1.08;0.45;;;;;;;;;;5132264;27;20251;-47
2022/09/12 10:33:42;;;;;;;8.07;1.27;;;;;;;;;;5134181;27;20091;-44
2022/09/12 10:36:08;;;;;;;1.73;1.13;;;;;;;;;;5127211;27;20030;-49
2022/09/12 10:38:33;;;;;;;7.82;1.73;;;;;;;;;;5134481;27;20035;-45
2022/09/12 10:41:06;;;;;;;4.60;1.73;;;;;;;;;;5130657;27;20080;-45
2022/09/12 10:43:34;;;;;;;12.88;2.00;;;;;;;;;;5130985;27;20043;-47
2022/09/12 10:46:15;;;;;;;3.10;1.40;;;;;;;;;;5132871;27;20034;-47
2022/09/12 10:48:40;;;;;;;;;;;;;;;;;;5133003;27;20023;-45
2022/09/12 10:51:13;;;;;;;2.83;0.90;;;;;;;;;;5128989;27;19904;-46
2022/09/12 10:53:43;;;;;;;11.00;3.03;;;;;;;;;;5132447;27;20024;-45
2022/09/12 10:56:32;;;;;;;5.97;3.67;;;;;;;;;;5131357;27;20051;-46
2022/09/12 10:59:03;;;;;;;8.00;1.50;;;;;;;;;;5084558;27;20026;-44
2022/09/12 11:01:28;;;;;;;5.22;2.97;;;;;;;;;;5132896;27;20446;-45
2022/09/12 11:03:53;;;;;;;6.40;4.10;;;;;;;;;;5130249;27;20102;-44
2022/09/12 11:06:23;;;;;;;7.32;2.83;;;;;;;;;;5132367;27;20243;-47
2022/09/12 11:08:59;;;;;;;7.63;2.83;;;;;;;;;;5131510;27;20136;-44
2022/09/12 11:11:33;;;;;;;9.75;5.95;;;;;;;;;;5130893;27;20064;-44
2022/09/12 11:14:06;;;;;;;6.18;3.45;;;;;;;;;;5129459;27;20319;-41
2022/09/12 11:16:44;;;;;;;3.85;2.95;;;;;;;;;;5131296;27;20098;-46
2022/09/12 11:19:09;;;;;;;1.73;0.95;;;;;;;;;;5136224;27;20023;-46
2022/09/12 11:21:44;;;;;;;1.25;0.95;;;;;;;;;;5133439;27;20099;-46
2022/09/12 11:24:24;;;;;;;3.95;1.67;;;;;;;;;;5131408;27;20037;-45
2022/09/12 11:26:49;;;;;;;;;;;;;;;;;;5135754;27;20037;-45
2022/09/12 11:29:32;;;;;;;2.03;1.20;;;;;;;;;;5135828;27;19924;-52
2022/09/12 11:31:57;;;;;;;1.33;0.82;;;;;;;;;;5137960;27;20015;-43
2022/09/12 11:34:33;;;;;;;1.33;1.23;;;;;;;;;;5138005;27;20106;-44
2022/09/12 11:36:59;;;;;;;0.88;0.50;;;;;;;;;;5138469;27;20024;-45
2022/09/12 11:39:37;;;;;;;1.45;0.90;;;;;;;;;;5132468;27;20023;-45
2022/09/12 11:42:04;;;;;;;2.95;1.23;;;;;;;;;;5133878;27;20031;-45
2022/09/12 11:44:39;;;;;;;1.73;0.90;;;;;;;;;;5135658;27;20019;-45
2022/09/12 11:47:07;;;;;;;2.28;0.70;;;;;;;;;;5136672;27;20019;-43
2022/09/12 11:49:36;;;;;;;1.30;0.95;;;;;;;;;;5133110;27;20448;-46
2022/09/12 11:52:20;;;;;;;1.60;0.68;;;;;;;;;;5133702;27;20038;-45
2022/09/12 11:54:59;;;;;;;1.27;1.02;;;;;;;;;;5129222;27;20042;-45
2022/09/12 11:57:24;;;;;;;3.58;0.82;;;;;;;;;;5129692;27;20509;-46
2022/09/12 11:59:50;;;;;;;2.23;0.90;;;;;;;;;;5132458;27;20052;-43
2022/09/12 12:02:25;;;;;;;6.50;0.70;;;;;;;;;;5130134;27;20618;-43
2022/09/12 12:04:54;;;;;;;2.97;1.15;;;;;;;;;;5129041;27;20047;-43
2022/09/12 12:07:19;;;;;;;1.02;0.75;;;;;;;;;;5133097;27;20027;-49
2022/09/12 12:09:49;;;;;;;1.98;0.95;;;;;;;;;;5132611;27;20016;-47
2022/09/12 12:12:18;;;;;;;8.57;3.72;;;;;;;;;;5132365;27;20046;-44
2022/09/12 12:14:45;;;;;;;1.25;0.57;;;;;;;;;;5133398;27;20019;-44
2022/09/12 12:17:15;;;;;;;1.48;0.70;;;;;;;;;;5128828;27;20040;-44
2022/09/12 12:19:41;;;;;;;2.42;1.02;;;;;;;;;;5132582;27;20030;-44
2022/09/12 12:22:07;;;;;;;2.83;0.80;;;;;;;;;;5132237;27;20432;-45
2022/09/12 12:24:33;;;;;;;2.20;1.33;;;;;;;;;;5117525;27;20118;-45
2022/09/12 12:27:02;;;;;;;1.63;0.82;;;;;;;;;;5139264;27;20152;-43
2022/09/12 12:29:35;;;;;;;1.00;0.70;;;;;;;;;;5137001;27;20060;-43
2022/09/12 12:32:01;;;;;;;4.68;0.85;;;;;;;;;;5133972;27;20059;-47
2022/09/12 12:34:33;;;;;;;8.25;1.85;;;;;;;;;;5135062;27;20045;-44
2022/09/12 12:37:21;;;;;;;6.88;1.40;;;;;;;;;;5135362;27;20068;-49
2022/09/12 12:39:47;;;;;;;1.52;1.15;;;;;;;;;;5132235;27;20688;-46
2022/09/12 12:42:30;;;;;;;1.50;0.82;;;;;;;;;;5131781;27;20015;-50
2022/09/12 12:44:56;;;;;;;2.15;1.15;;;;;;;;;;5134287;27;20023;-46
2022/09/12 12:47:23;;;;;;;4.07;1.83;;;;;;;;;;5133624;27;20072;-48
2022/09/12 12:50:08;;;;;;;2.15;1.25;;;;;;;;;;5134516;27;20077;-43
2022/09/12 12:52:46;;;;;;;3.90;1.52;;;;;;;;;;5128813;27;20397;-45
2022/09/12 12:55:25;;;;;;;4.35;1.70;;;;;;;;;;5131867;27;20039;-48
2022/09/12 12:57:54;;;;;;;4.53;1.00;;;;;;;;;;5127638;27;20045;-49
2022/09/12 13:00:20;;;;;;;3.40;1.07;;;;;;;;;;5135551;27;20145;-45
2022/09/12 13:02:56;;;;;;;10.90;2.25;;;;;;;;;;5132850;27;20477;-45
2022/09/12 13:05:24;;;;;;;3.55;1.42;;;;;;;;;;5130319;27;20019;-49
2022/09/12 13:07:54;;;;;;;2.38;1.20;;;;;;;;;;5124213;27;20027;-47
2022/09/12 13:10:22;;;;;;;1.25;1.15;;;;;;;;;;5134654;27;20046;-45
2022/09/12 13:12:48;;;;;;;3.90;2.05;;;;;;;;;;5128828;27;20035;-49
2022/09/12 13:15:32;;;;;;;5.80;1.00;;;;;;;;;;5133488;27;20019;-46
2022/09/12 13:17:58;;;;;;;5.53;1.20;;;;;;;;;;5133796;27;20046;-44
2022/09/12 13:20:27;;;;;;;10.43;1.88;;;;;;;;;;5133579;27;20075;-48
2022/09/12 13:22:52;;;;;;;3.25;1.45;;;;;;;;;;5131264;27;20027;-47
2022/09/12 13:25:18;;;;;;;2.63;1.40;;;;;;;;;;5131863;27;20026;-48
2022/09/12 13:27:55;;;;;;;1.67;0.82;;;;;;;;;;5130143;27;20393;-45
2022/09/12 13:30:20;;;;;;;1.30;0.82;;;;;;;;;;5133916;27;20027;-45
2022/09/12 13:32:45;;;;;;;3.40;1.65;;;;;;;;;;5131849;27;20395;-50
2022/09/12 13:35:22;;;;;;;2.70;1.90;;;;;;;;;;5131354;27;20026;-54
2022/09/12 13:37:53;;;;;;;1.13;0.90;;;;;;;;;;5129949;27;20020;-47
2022/09/12 13:40:18;;;;;;;;;;;;;;;;;;5133522;27;20117;-53
2022/09/12 13:42:47;;;;;;;3.87;1.47;;;;;;;;;;5132531;27;19998;-52
2022/09/12 13:45:23;;;;;;;12.35;1.67;;;;;;;;;;5129880;27;20019;-52
2022/09/12 13:47:56;;;;;;;3.75;1.15;;;;;;;;;;5130483;27;20383;-51
2022/09/12 13:50:26;;;;;;;2.92;0.82;;;;;;;;;;5130638;27;20110;-51
2022/09/12 13:52:56;;;;;;;2.37;0.90;;;;;;;;;;5131031;27;20027;-53
2022/09/12 13:55:28;;;;;;;1.65;1.05;;;;;;;;;;5126357;27;20188;-56
2022/09/12 13:58:16;;;;;;;0.73;0.38;;;;;;;;;;5132961;27;20046;-52
2022/09/12 14:00:42;;;;;;;1.00;0.63;;;;;;;;;;5125301;27;20019;-56
2022/09/12 14:06:11;;;;;;;3.92;0.60;;;;;;;;;;5132728;27;20033;-53
2022/09/12 14:08:40;;;;;;;2.28;0.57;;;;;;;;;;5137387;27;20023;-56
2022/09/12 14:11:09;;;;;;;2.78;0.90;;;;;;;;;;5132164;27;20084;-53
2022/09/12 14:13:37;;;;;;;0.90;0.50;;;;;;;;;;5127950;27;20018;-48
2022/09/12 14:16:06;;;;;;;1.73;0.85;;;;;;;;;;5135882;27;20025;-52
2022/09/12 14:18:35;;;;;;;1.30;0.80;;;;;;;;;;5131166;27;20042;-49
2022/09/12 14:21:11;;;;;;;1.55;0.82;;;;;;;;;;5130803;27;20023;-52
2022/09/12 14:23:41;;;;;;;0.57;0.30;;;;;;;;;;5133751;27;20110;-54
2022/09/12 14:26:10;;;;;;;2.17;1.10;;;;;;;;;;5131992;27;20027;-52
2022/09/12 14:28:38;;;;;;;1.30;1.20;;;;;;;;;;5134190;27;20027;-46
2022/09/12 14:31:05;;;;;;;4.18;0.85;;;;;;;;;;5130666;27;20089;-47
2022/09/12 14:33:32;;;;;;;0.88;0.63;;;;;;;;;;5129502;27;20023;-52
2022/09/12 14:36:17;;;;;;;0.80;0.50;;;;;;;;;;5133295;27;20026;-48
2022/09/12 14:38:43;;;;;;;1.60;0.65;;;;;;;;;;5129642;27;20011;-49
2022/09/12 14:41:10;;;;;;;1.30;0.50;;;;;;;;;;5130838;27;20011;-51
2022/09/12 14:43:37;;;;;;;1.60;0.90;;;;;;;;;;5128679;27;20355;-49
2022/09/12 14:46:04;;;;;;;1.17;0.73;;;;;;;;;;5132617;27;20045;-51
2022/09/12 14:48:31;;;;;;;0.73;0.55;;;;;;;;;;5131312;27;20128;-53
2022/09/12 14:50:57;;;;;;;1.67;1.15;;;;;;;;;;5133466;27;20550;-49
2022/09/12 14:53:36;;;;;;;8.07;3.38;;;;;;;;;;5136271;27;20105;-56
2022/09/12 14:56:06;;;;;;;20.27;2.35;;;;;;;;;;5142020;27;20131;-50